createdAt,value
2018-10-12T00:00:09.668Z,87.60
2018-10-12T00:02:41.440Z,87.20
2018-10-12T00:05:13.524Z,87.30
2018-10-12T00:07:43.950Z,87.50
2018-10-12T00:10:15.298Z,87.50
2018-10-12T00:12:45.693Z,87.50
2018-10-12T00:15:15.830Z,87.70
2018-10-12T00:17:46.492Z,87.80
2018-10-12T00:20:16.070Z,87.80
2018-10-12T00:22:45.842Z,87.90
2018-10-12T00:25:15.551Z,87.80
2018-10-12T00:27:45.189Z,87.80
2018-10-12T00:30:16.636Z,87.70
2018-10-12T00:32:51.128Z,87.70
2018-10-12T00:35:21.509Z,87.90
2018-10-12T00:37:51.183Z,87.80
2018-10-12T00:40:20.817Z,87.70
2018-10-12T00:42:51.440Z,87.80
2018-10-12T00:45:22.371Z,87.90
2018-10-12T00:47:57.528Z,88.00
2018-10-12T00:50:27.551Z,88.00
2018-10-12T00:52:57.306Z,88.10
2018-10-12T00:55:28.106Z,88.20
2018-10-12T00:57:57.616Z,88.20
2018-10-12T01:00:32.066Z,88.20
2018-10-12T01:03:02.609Z,88.30
2018-10-12T01:05:33.185Z,88.30
2018-10-12T01:08:03.469Z,88.30
2018-10-12T01:10:33.501Z,88.20
2018-10-12T01:13:03.052Z,88.40
2018-10-12T01:15:34.349Z,88.50
2018-10-12T01:18:05.184Z,88.60
2018-10-12T01:20:36.127Z,88.80
2018-10-12T01:23:06.745Z,88.80
2018-10-12T01:25:36.347Z,88.90
2018-10-12T01:28:06.213Z,88.90
2018-10-12T01:30:36.369Z,89.00
2018-10-12T01:33:06.835Z,89.00
2018-10-12T01:35:40.615Z,89.20
2018-10-12T01:38:10.225Z,89.40
2018-10-12T01:40:39.803Z,89.50
2018-10-12T01:43:09.549Z,89.60
2018-10-12T01:45:39.360Z,89.60
2018-10-12T01:48:09.138Z,89.70
2018-10-12T01:50:38.890Z,89.80
2018-10-12T01:53:09.779Z,89.80
2018-10-12T01:55:40.064Z,89.80
2018-10-12T01:58:09.923Z,90.00
2018-10-12T02:00:39.816Z,90.00
2018-10-12T02:03:09.213Z,90.00
2018-10-12T02:05:38.890Z,90.00
2018-10-12T02:08:10.338Z,90.20
2018-10-12T02:10:39.772Z,90.20
2018-10-12T02:13:11.672Z,90.30
2018-10-12T02:15:41.326Z,90.30
2018-10-12T02:18:10.930Z,90.40
2018-10-12T02:20:40.625Z,90.50
2018-10-12T02:23:11.440Z,90.50
2018-10-12T02:25:41.249Z,90.50
2018-10-12T02:28:11.297Z,90.50
2018-10-12T02:30:40.797Z,90.50
2018-10-12T02:33:11.553Z,90.70
2018-10-12T02:35:41.223Z,90.40
2018-10-12T02:38:10.690Z,90.50
2018-10-12T02:40:40.288Z,90.50
2018-10-12T02:43:11.869Z,90.50
2018-10-12T02:45:41.578Z,90.50
2018-10-12T02:48:11.033Z,90.50
2018-10-12T02:50:40.573Z,90.50
2018-10-12T02:53:12.196Z,90.60
2018-10-12T02:55:42.055Z,90.50
2018-10-12T02:58:12.433Z,90.60
2018-10-12T03:00:42.679Z,90.90
2018-10-12T03:03:12.833Z,90.70
2018-10-12T03:05:42.861Z,90.70
2018-10-12T03:08:12.526Z,90.60
2018-10-12T03:10:48.573Z,90.60
2018-10-12T03:13:18.437Z,90.50
2018-10-12T03:15:48.140Z,90.50
2018-10-12T03:18:17.589Z,90.60
2018-10-12T03:20:47.156Z,90.50
2018-10-12T03:23:17.309Z,90.50
2018-10-12T03:25:46.823Z,90.50
2018-10-12T03:28:21.944Z,90.50
2018-10-12T03:30:52.284Z,90.50
2018-10-12T03:33:22.550Z,90.50
2018-10-12T03:35:52.986Z,90.50
2018-10-12T03:38:23.282Z,90.50
2018-10-12T03:40:54.145Z,90.40
2018-10-12T03:43:24.644Z,90.30
2018-10-12T03:45:54.271Z,90.20
2018-10-12T03:48:24.641Z,90.10
2018-10-12T03:50:54.252Z,90.10
2018-10-12T03:53:23.801Z,90.10
2018-10-12T03:55:54.313Z,90.20
2018-10-12T03:58:24.072Z,90.00
2018-10-12T04:00:53.602Z,90.00
2018-10-12T04:03:23.131Z,90.00
2018-10-12T04:05:53.288Z,90.00
2018-10-12T04:08:22.760Z,89.90
2018-10-12T04:10:52.481Z,89.90
2018-10-12T04:13:22.828Z,89.70
2018-10-12T04:15:53.283Z,89.70
2018-10-12T04:18:23.107Z,89.70
2018-10-12T04:20:52.592Z,89.70
2018-10-12T04:23:22.293Z,89.60
2018-10-12T04:25:51.841Z,89.50
2018-10-12T04:28:21.517Z,89.30
2018-10-12T04:30:51.670Z,89.20
2018-10-12T04:33:21.607Z,88.90
2018-10-12T04:35:51.287Z,88.90
2018-10-12T04:38:20.858Z,88.90
2018-10-12T04:41:01.429Z,88.90
2018-10-12T04:43:31.405Z,88.80
2018-10-12T04:46:02.340Z,88.30
2018-10-12T04:48:32.320Z,88.30
2018-10-12T04:51:02.665Z,88.00
2018-10-12T04:53:33.096Z,87.90
2018-10-12T04:56:02.766Z,87.70
2018-10-12T04:58:32.310Z,87.60
2018-10-12T05:01:02.104Z,87.60
2018-10-12T05:03:32.625Z,87.60
2018-10-12T05:06:02.274Z,87.30
2018-10-12T05:08:32.476Z,87.20
2018-10-12T05:11:02.290Z,87.10
2018-10-12T05:13:33.348Z,86.90
2018-10-12T05:16:03.454Z,86.90
2018-10-12T05:18:33.133Z,86.70
2018-10-12T05:21:03.621Z,86.40
2018-10-12T05:23:33.497Z,86.40
2018-10-12T05:26:03.121Z,86.10
2018-10-12T05:28:34.740Z,86.00
2018-10-12T05:31:04.369Z,86.10
2018-10-12T05:33:37.308Z,85.80
2018-10-12T05:36:07.396Z,85.90
2018-10-12T05:38:38.826Z,86.00
2018-10-12T05:41:08.511Z,86.00
2018-10-12T05:43:38.065Z,85.90
2018-10-12T05:46:07.714Z,85.80
2018-10-12T05:48:48.273Z,85.60
2018-10-12T05:51:18.971Z,85.30
2018-10-12T05:53:49.237Z,85.20
2018-10-12T05:56:21.776Z,85.20
2018-10-12T05:58:52.356Z,85.00
2018-10-12T06:01:22.368Z,85.00
2018-10-12T06:03:51.918Z,85.00
2018-10-12T06:06:21.656Z,84.90
2018-10-12T06:08:51.229Z,84.70
2018-10-12T06:11:22.308Z,84.80
2018-10-12T06:13:51.923Z,84.70
2018-10-12T06:16:21.688Z,84.70
2018-10-12T06:18:51.436Z,84.70
2018-10-12T06:21:20.967Z,84.60
2018-10-12T06:23:50.480Z,85.20
2018-10-12T06:26:20.219Z,84.50
2018-10-12T06:28:49.966Z,84.60
2018-10-12T06:31:19.657Z,84.60
2018-10-12T06:33:49.953Z,84.80
2018-10-12T06:36:19.459Z,84.60
2018-10-12T06:38:49.801Z,84.80
2018-10-12T06:41:19.463Z,84.80
2018-10-12T06:43:49.158Z,84.80
2018-10-12T06:46:18.845Z,84.80
2018-10-12T06:48:48.309Z,84.90
2018-10-12T06:51:18.035Z,84.90
2018-10-12T06:53:47.705Z,84.90
2018-10-12T06:56:17.643Z,85.00
2018-10-12T06:58:47.236Z,85.10
2018-10-12T07:01:17.007Z,85.30
2018-10-12T07:03:47.310Z,85.40
2018-10-12T07:06:17.956Z,85.50
2018-10-12T07:08:48.283Z,85.40
2018-10-12T07:11:18.140Z,85.40
2018-10-12T07:13:48.457Z,85.70
2018-10-12T07:16:19.389Z,85.80
2018-10-12T07:18:50.110Z,85.80
2018-10-12T07:21:20.593Z,85.80
2018-10-12T07:23:50.810Z,85.70
2018-10-12T07:26:20.512Z,85.60
2018-10-12T07:28:50.033Z,85.40
2018-10-12T07:31:19.730Z,85.40
2018-10-12T07:33:49.337Z,85.10
2018-10-12T07:36:20.176Z,85.10
2018-10-12T07:38:49.851Z,85.00
2018-10-12T07:41:19.400Z,85.00
2018-10-12T07:43:49.213Z,85.10
2018-10-12T07:46:19.408Z,84.90
2018-10-12T07:48:49.420Z,84.90
2018-10-12T07:51:19.467Z,84.90
2018-10-12T07:53:49.241Z,84.90
2018-10-12T07:56:18.729Z,84.60
2018-10-12T07:58:48.469Z,84.50
2018-10-12T08:01:18.727Z,84.30
2018-10-12T08:03:48.648Z,84.40
2018-10-12T08:06:25.077Z,83.90
2018-10-12T08:08:54.508Z,83.80
2018-10-12T08:11:24.137Z,83.50
2018-10-12T08:13:54.014Z,82.90
2018-10-12T08:16:24.292Z,83.30
2018-10-12T08:18:55.262Z,82.80
2018-10-12T08:21:24.855Z,82.50
2018-10-12T08:23:54.646Z,82.20
2018-10-12T08:26:24.202Z,81.80
2018-10-12T08:28:54.404Z,81.50
2018-10-12T08:31:23.924Z,80.90
2018-10-12T08:33:54.306Z,80.50
2018-10-12T08:36:28.649Z,79.70
2018-10-12T08:38:58.305Z,79.30
2018-10-12T08:41:28.229Z,78.90
2018-10-12T08:43:57.881Z,78.40
2018-10-12T08:46:27.530Z,77.50
2018-10-12T08:48:57.364Z,77.60
2018-10-12T08:51:27.261Z,77.20
2018-10-12T08:53:56.816Z,76.90
2018-10-12T08:56:27.222Z,76.60
2018-10-12T08:58:56.886Z,75.80
2018-10-12T09:01:26.475Z,75.80
2018-10-12T09:03:56.009Z,75.60
2018-10-12T09:06:26.421Z,75.30
2018-10-12T09:08:56.103Z,74.90
2018-10-12T09:11:25.804Z,74.50
2018-10-12T09:13:55.350Z,74.50
2018-10-12T09:16:25.205Z,73.90
2018-10-12T09:18:54.560Z,73.00
2018-10-12T09:21:24.045Z,72.90
2018-10-12T09:23:54.420Z,72.40
2018-10-12T09:26:24.096Z,72.70
2018-10-12T09:28:53.687Z,70.70
2018-10-12T09:31:23.594Z,70.80
2018-10-12T09:33:53.607Z,70.20
2018-10-12T09:36:23.402Z,69.90
2018-10-12T09:38:53.068Z,69.70
2018-10-12T09:41:23.133Z,69.10
2018-10-12T09:43:52.921Z,69.00
2018-10-12T09:46:22.827Z,69.00
2018-10-12T09:48:52.543Z,68.90
2018-10-12T09:51:21.999Z,69.10
2018-10-12T09:53:52.142Z,67.90
2018-10-12T09:56:22.730Z,67.30
2018-10-12T09:58:52.933Z,66.50
2018-10-12T10:01:27.858Z,66.10
2018-10-12T10:04:03.083Z,65.90
2018-10-12T10:06:32.757Z,66.00
2018-10-12T10:09:02.777Z,64.90
2018-10-12T10:11:32.346Z,65.00
2018-10-12T10:14:02.021Z,64.90
2018-10-12T10:16:31.897Z,64.90
2018-10-12T10:19:01.820Z,64.20
2018-10-12T10:21:31.507Z,63.30
2018-10-12T10:24:01.130Z,63.80
2018-10-12T10:26:30.636Z,63.00
2018-10-12T10:29:01.100Z,62.90
2018-10-12T10:31:31.042Z,62.90
2018-10-12T10:34:00.860Z,62.70
2018-10-12T10:36:32.835Z,62.10
2018-10-12T10:39:02.663Z,61.90
2018-10-12T10:41:32.892Z,61.80
2018-10-12T10:44:03.197Z,62.00
2018-10-12T10:46:32.901Z,61.60
2018-10-12T10:49:02.978Z,61.50
2018-10-12T10:51:33.548Z,61.20
2018-10-12T10:54:03.949Z,61.30
2018-10-12T10:56:34.410Z,60.80
2018-10-12T10:59:04.427Z,60.80
2018-10-12T11:01:38.629Z,60.70
2018-10-12T11:04:08.450Z,60.80
2018-10-12T11:06:39.377Z,60.20
2018-10-12T11:09:09.759Z,59.70
2018-10-12T11:11:39.404Z,59.40
2018-10-12T11:14:09.325Z,59.40
2018-10-12T11:16:39.320Z,59.10
2018-10-12T11:19:09.027Z,58.90
2018-10-12T11:21:39.150Z,58.80
2018-10-12T11:24:09.021Z,58.80
2018-10-12T11:26:39.081Z,59.10
2018-10-12T11:29:09.946Z,58.50
2018-10-12T11:31:41.953Z,58.30
2018-10-12T11:34:11.720Z,58.20
2018-10-12T11:36:41.207Z,57.40
2018-10-12T11:39:15.695Z,57.50
2018-10-12T11:41:45.524Z,57.30
2018-10-12T11:44:23.186Z,57.20
2018-10-12T11:46:53.216Z,56.90
2018-10-12T11:49:22.981Z,57.00
2018-10-12T11:51:54.478Z,56.90
2018-10-12T11:54:24.388Z,56.40
2018-10-12T11:56:54.583Z,56.50
2018-10-12T11:59:25.242Z,56.40
2018-10-12T12:01:55.841Z,56.50
2018-10-12T12:04:27.197Z,56.70
2018-10-12T12:06:58.682Z,55.80
2018-10-12T12:09:29.473Z,55.80
2018-10-12T12:12:06.605Z,56.00
2018-10-12T12:14:38.102Z,55.80
2018-10-12T12:17:08.841Z,55.70
2018-10-12T12:19:39.795Z,55.90
2018-10-12T12:22:16.127Z,55.60
2018-10-12T12:24:46.795Z,55.70
2018-10-12T12:27:16.841Z,55.20
2018-10-12T12:29:50.770Z,55.30
2018-10-12T12:32:20.678Z,55.40
2018-10-12T12:34:51.499Z,55.40
2018-10-12T12:37:21.320Z,55.40
2018-10-12T12:39:51.723Z,55.60
2018-10-12T12:42:21.499Z,55.60
2018-10-12T12:44:51.198Z,55.50
2018-10-12T12:47:21.828Z,55.50
2018-10-12T12:49:51.460Z,55.50
2018-10-12T12:52:22.064Z,55.60
2018-10-12T12:54:52.005Z,55.40
2018-10-12T12:57:22.282Z,56.20
2018-10-12T12:59:53.213Z,55.80
2018-10-12T13:02:22.708Z,55.70
2018-10-12T13:04:52.628Z,55.80
2018-10-12T13:07:22.373Z,55.90
2018-10-12T13:09:53.537Z,55.80
2018-10-12T13:12:24.466Z,55.50
2018-10-12T13:14:54.432Z,55.70
2018-10-12T13:17:24.571Z,55.80
2018-10-12T13:19:54.850Z,55.90
2018-10-12T13:22:27.625Z,55.30
2018-10-12T13:24:58.202Z,55.20
2018-10-12T13:27:28.613Z,55.40
2018-10-12T13:29:58.304Z,55.30
2018-10-12T13:32:28.281Z,55.10
2018-10-12T13:34:58.088Z,55.10
2018-10-12T13:37:28.860Z,55.30
2018-10-12T13:39:58.624Z,55.40
2018-10-12T13:42:28.390Z,55.50
2018-10-12T13:44:57.969Z,55.50
2018-10-12T13:47:27.826Z,55.30
2018-10-12T13:49:57.925Z,55.40
2018-10-12T13:52:28.500Z,55.30
2018-10-12T13:54:58.121Z,55.20
2018-10-12T13:57:28.354Z,54.80
2018-10-12T13:59:57.984Z,54.80
2018-10-12T14:02:27.801Z,54.90
2018-10-12T14:04:57.956Z,54.90
2018-10-12T14:07:28.997Z,54.90
2018-10-12T14:09:59.243Z,54.70
2018-10-12T14:12:28.804Z,54.60
2018-10-12T14:14:58.604Z,54.40
2018-10-12T14:17:35.228Z,54.40
2018-10-12T14:20:06.258Z,54.50
2018-10-12T14:22:35.800Z,54.60
2018-10-12T14:25:05.671Z,54.50
2018-10-12T14:27:35.228Z,54.40
2018-10-12T14:30:06.231Z,54.20
2018-10-12T14:32:36.242Z,54.30
2018-10-12T14:35:05.965Z,54.40
2018-10-12T14:37:36.300Z,54.40
2018-10-12T14:40:07.016Z,54.60
2018-10-12T14:42:36.765Z,54.50
2018-10-12T14:45:06.610Z,54.30
2018-10-12T14:47:36.636Z,54.10
2018-10-12T14:50:06.542Z,54.10
2018-10-12T14:52:37.961Z,54.10
2018-10-12T14:55:08.022Z,54.30
2018-10-12T14:57:38.468Z,54.30
2018-10-12T15:00:09.441Z,54.50
2018-10-12T15:02:39.852Z,54.60
2018-10-12T15:05:10.236Z,54.90
2018-10-12T15:07:40.199Z,55.00
2018-10-12T15:10:10.000Z,55.30
2018-10-12T15:12:39.840Z,55.30
2018-10-12T15:15:19.544Z,55.30
2018-10-12T15:17:50.187Z,55.80
2018-10-12T15:20:20.829Z,55.20
2018-10-12T15:22:50.820Z,55.30
2018-10-12T15:25:20.502Z,55.40
2018-10-12T15:27:50.846Z,55.60
2018-10-12T15:30:21.209Z,55.60
2018-10-12T15:32:51.187Z,55.70
2018-10-12T15:35:21.124Z,55.80
2018-10-12T15:37:50.720Z,55.90
2018-10-12T15:40:20.429Z,56.00
2018-10-12T15:42:50.618Z,56.20
2018-10-12T15:45:21.160Z,56.40
2018-10-12T15:47:50.667Z,56.50
2018-10-12T15:50:20.995Z,56.60
2018-10-12T15:52:51.205Z,56.70
2018-10-12T15:55:21.417Z,56.90
2018-10-12T15:57:51.134Z,57.00
2018-10-12T16:00:20.590Z,57.10
2018-10-12T16:02:50.402Z,57.20
2018-10-12T16:05:20.648Z,57.40
2018-10-12T16:07:50.841Z,57.60
2018-10-12T16:10:20.517Z,57.70
2018-10-12T16:12:50.081Z,57.80
2018-10-12T16:15:19.653Z,58.00
2018-10-12T16:17:49.436Z,58.10
2018-10-12T16:20:20.141Z,58.20
2018-10-12T16:22:49.704Z,58.30
2018-10-12T16:26:00.839Z,58.50
2018-10-12T16:28:30.832Z,58.70
2018-10-12T16:31:00.560Z,58.80
2018-10-12T16:33:35.611Z,59.00
2018-10-12T16:36:06.401Z,59.00
2018-10-12T16:38:36.785Z,59.20
2018-10-12T16:41:06.609Z,59.30
2018-10-12T16:43:36.936Z,59.50
2018-10-12T16:46:06.717Z,59.60
2018-10-12T16:48:37.356Z,59.70
2018-10-12T16:51:07.185Z,59.80
2018-10-12T16:53:38.683Z,60.00
2018-10-12T16:56:08.861Z,60.00
2018-10-12T16:58:38.666Z,60.30
2018-10-12T17:01:08.401Z,60.40
2018-10-12T17:03:39.801Z,60.50
2018-10-12T17:06:11.749Z,60.60
2018-10-12T17:08:41.909Z,60.80
2018-10-12T17:11:12.141Z,61.00
2018-10-12T17:13:41.639Z,61.10
2018-10-12T17:16:11.287Z,61.20
2018-10-12T17:18:41.814Z,61.40
2018-10-12T17:21:15.157Z,61.50
2018-10-12T17:23:45.176Z,61.60
2018-10-12T17:26:14.905Z,61.70
2018-10-12T17:28:45.327Z,61.90
2018-10-12T17:31:15.573Z,62.10
2018-10-12T17:33:47.897Z,62.30
2018-10-12T17:36:21.045Z,62.30
2018-10-12T17:38:53.414Z,62.60
2018-10-12T17:41:24.377Z,62.70
2018-10-12T17:43:54.936Z,62.90
2018-10-12T17:46:25.143Z,63.00
2018-10-12T17:48:55.295Z,63.20
2018-10-12T17:51:24.895Z,63.40
2018-10-12T17:53:54.996Z,63.60
2018-10-12T17:56:24.937Z,63.60
2018-10-12T17:58:54.562Z,63.70
2018-10-12T18:01:24.167Z,63.80
2018-10-12T18:03:53.888Z,63.80
2018-10-12T18:06:23.631Z,64.00
2018-10-12T18:08:53.832Z,64.80
2018-10-12T18:11:25.041Z,64.20
2018-10-12T18:13:55.795Z,64.40
2018-10-12T18:16:25.723Z,64.50
2018-10-12T18:18:58.802Z,64.70
2018-10-12T18:21:29.224Z,65.00
2018-10-12T18:26:38.980Z,65.30
2018-10-12T18:29:09.193Z,65.50
2018-10-12T18:31:39.187Z,65.60
2018-10-12T18:34:09.767Z,65.60
2018-10-12T18:36:39.497Z,65.80
2018-10-12T18:39:10.347Z,65.70
2018-10-12T18:41:39.980Z,65.70
2018-10-12T18:44:11.022Z,65.80
2018-10-12T18:46:42.257Z,65.90
2018-10-12T18:49:12.641Z,66.10
2018-10-12T18:51:42.185Z,66.20
2018-10-12T18:54:11.842Z,66.30
2018-10-12T18:56:41.459Z,66.40
2018-10-12T18:59:12.342Z,66.50
2018-10-12T19:01:42.472Z,66.50
2018-10-12T19:04:12.112Z,66.50
2018-10-12T19:06:43.257Z,66.50
2018-10-12T19:09:13.613Z,66.50
2018-10-12T19:11:43.291Z,66.60
2018-10-12T19:14:14.063Z,66.60
2018-10-12T19:16:43.703Z,66.80
2018-10-12T19:19:13.971Z,66.80
2018-10-12T19:21:44.431Z,66.90
2018-10-12T19:24:14.856Z,67.00
2018-10-12T19:26:44.494Z,67.00
2018-10-12T19:29:14.690Z,67.20
2018-10-12T19:31:45.272Z,67.30
2018-10-12T19:34:15.003Z,67.90
2018-10-12T19:36:45.361Z,67.20
2018-10-12T19:39:15.010Z,67.30
2018-10-12T19:41:45.623Z,67.30
2018-10-12T19:44:16.146Z,67.40
2018-10-12T19:46:45.765Z,67.50
2018-10-12T19:49:16.441Z,67.70
2018-10-12T19:51:46.447Z,67.80
2018-10-12T19:54:16.518Z,67.70
2018-10-12T19:56:46.729Z,67.70
2018-10-12T19:59:16.354Z,67.50
2018-10-12T20:01:46.594Z,67.50
2018-10-12T20:04:16.942Z,67.50
2018-10-12T20:06:46.903Z,67.40
2018-10-12T20:09:16.564Z,67.40
2018-10-12T20:11:46.613Z,67.30
2018-10-12T20:14:16.332Z,67.50
2018-10-12T20:16:46.573Z,68.20
2018-10-12T20:19:16.312Z,67.50
2018-10-12T20:21:47.419Z,68.30
2018-10-12T20:24:18.184Z,67.60
2018-10-12T20:26:47.904Z,67.60
2018-10-12T20:29:17.408Z,67.60
2018-10-12T20:31:47.231Z,67.90
2018-10-12T20:34:17.099Z,67.90
2018-10-12T20:36:48.675Z,68.00
2018-10-12T20:39:18.923Z,68.00
2018-10-12T20:41:49.633Z,68.00
2018-10-12T20:44:20.025Z,68.20
2018-10-12T20:46:49.522Z,68.50
2018-10-12T20:49:19.092Z,68.40
2018-10-12T20:51:50.126Z,68.70
2018-10-12T20:54:21.592Z,68.80
2018-10-12T20:56:51.534Z,69.00
2018-10-12T20:59:21.314Z,69.30
2018-10-12T21:01:53.037Z,69.60
2018-10-12T21:04:22.574Z,69.60
2018-10-12T21:06:52.104Z,69.80
2018-10-12T21:09:27.538Z,70.10
2018-10-12T21:11:59.162Z,70.30
2018-10-12T21:14:28.791Z,70.40
2018-10-12T21:17:00.210Z,70.40
2018-10-12T21:19:30.565Z,70.70
2018-10-12T21:22:02.783Z,70.70
2018-10-12T21:24:33.478Z,70.80
2018-10-12T21:27:05.450Z,71.00
2018-10-12T21:29:39.731Z,71.10
2018-10-12T21:32:10.482Z,71.30
2018-10-12T21:34:40.532Z,71.30
2018-10-12T21:37:11.838Z,71.40
2018-10-12T21:39:43.596Z,71.50
2018-10-12T21:42:14.153Z,71.50
2018-10-12T21:44:44.681Z,71.70
2018-10-12T21:47:15.028Z,71.80
2018-10-12T21:49:48.869Z,72.40
2018-10-12T21:52:19.228Z,72.10
2018-10-12T21:54:49.324Z,72.10
2018-10-12T21:57:18.841Z,72.10
2018-10-12T21:59:49.024Z,72.30
2018-10-12T22:02:23.387Z,72.40
2018-10-12T22:04:52.974Z,72.60
2018-10-12T22:07:23.065Z,72.70
2018-10-12T22:09:54.487Z,72.80
2018-10-12T22:12:25.297Z,72.90
2018-10-12T22:14:55.560Z,73.10
2018-10-12T22:17:25.296Z,73.50
2018-10-12T22:19:54.938Z,73.50
2018-10-12T22:22:25.220Z,73.70
2018-10-12T22:24:59.294Z,74.40
2018-10-12T22:27:33.565Z,73.50
2018-10-12T22:30:03.309Z,73.40
2018-10-12T22:32:33.030Z,73.30
2018-10-12T22:35:04.038Z,73.50
2018-10-12T22:37:34.337Z,73.90
2018-10-12T22:40:05.388Z,73.90
2018-10-12T22:42:35.417Z,73.90
2018-10-12T22:45:09.548Z,74.00
2018-10-12T22:47:38.994Z,74.20
2018-10-12T22:50:08.884Z,74.30
2018-10-12T22:52:38.969Z,74.30
2018-10-12T22:55:08.776Z,74.50
2018-10-12T22:57:38.693Z,74.60
2018-10-12T23:00:08.473Z,74.70
2018-10-12T23:02:38.803Z,75.00
2018-10-12T23:05:08.689Z,75.30
2018-10-12T23:07:38.329Z,75.50
2018-10-12T23:10:08.425Z,75.60
2018-10-12T23:12:38.200Z,75.80
2018-10-12T23:15:12.444Z,75.90
2018-10-12T23:17:43.531Z,76.10
2018-10-12T23:20:13.195Z,76.30
2018-10-12T23:22:43.089Z,76.30
2018-10-12T23:25:15.803Z,76.50
2018-10-12T23:27:46.103Z,76.80
2018-10-12T23:30:15.755Z,77.10
2018-10-12T23:32:46.367Z,77.20
2018-10-12T23:35:16.262Z,77.50
2018-10-12T23:37:45.689Z,77.50
2018-10-12T23:40:15.253Z,77.60
2018-10-12T23:42:45.519Z,78.50
2018-10-12T23:45:15.445Z,78.30
2018-10-12T23:47:45.224Z,78.30
2018-10-12T23:50:15.609Z,78.50
2018-10-12T23:52:45.485Z,78.60
2018-10-12T23:55:15.601Z,78.70
2018-10-12T23:57:45.373Z,78.70
